Time;durP1;ratioP1;P1;durP2;ratioP2;P2;SDS_P1;SDS_P2;PMS_P1;PMS_P2;Temp;Humidity;BMP_temperature;BMP_pressure;BME280_temperature;BME280_humidity;BME280_pressure;Samples;Min_cycle;Max_cycle;Signal;HPM_P1;HPM_P2
2023/02/19 00:00:56;;;;;;;3.17;2.90;;;12.20;99.90;;;;;;4948242;28;20430;-70
2023/02/19 00:03:21;;;;;;;3.80;3.00;;;12.30;99.90;;;;;;4946312;29;20229;-70
2023/02/19 00:05:47;;;;;;;3.93;3.47;;;12.40;99.90;;;;;;4945577;28;20714;-70
2023/02/19 00:08:12;;;;;;;4.23;3.77;;;12.40;99.90;;;;;;4946400;29;20588;-70
2023/02/19 00:10:38;;;;;;;3.23;2.60;;;12.40;99.90;;;;;;4943803;28;20188;-70
2023/02/19 00:13:04;;;;;;;3.30;3.00;;;12.60;99.90;;;;;;4930006;29;20213;-70
2023/02/19 00:15:31;;;;;;;3.40;3.03;;;12.50;99.90;;;;;;4945627;29;20193;-70
2023/02/19 00:17:57;;;;;;;3.17;2.83;;;12.50;99.90;;;;;;4932263;28;20652;-70
2023/02/19 00:20:23;;;;;;;3.43;2.90;;;12.60;99.90;;;;;;4948091;28;20435;-70
2023/02/19 00:22:48;;;;;;;2.70;2.30;;;12.50;99.90;;;;;;4948216;28;20671;-70
2023/02/19 00:25:14;;;;;;;4.10;2.50;;;12.60;99.90;;;;;;4939313;28;20210;-71
2023/02/19 00:27:39;;;;;;;3.37;2.67;;;12.50;99.90;;;;;;4948001;28;20356;-70
2023/02/19 00:30:05;;;;;;;2.30;1.87;;;12.60;99.90;;;;;;4935982;28;20186;-70
2023/02/19 00:32:31;;;;;;;3.10;2.80;;;12.40;99.90;;;;;;4929553;28;20679;-71
2023/02/19 00:34:56;;;;;;;2.50;2.30;;;12.30;99.90;;;;;;4928920;29;20273;-70
2023/02/19 00:37:22;;;;;;;2.87;2.57;;;12.40;99.90;;;;;;4928360;29;20888;-70
2023/02/19 00:39:47;;;;;;;2.97;2.70;;;12.50;99.90;;;;;;4928815;29;20185;-70
2023/02/19 00:42:13;;;;;;;4.20;2.67;;;12.50;99.90;;;;;;4926588;29;20218;-70
2023/02/19 00:44:38;;;;;;;2.00;1.90;;;12.40;99.90;;;;;;4944532;29;20364;-70
2023/02/19 00:47:04;;;;;;;2.47;2.27;;;12.40;99.90;;;;;;4945319;28;20270;-71
2023/02/19 00:49:30;;;;;;;2.00;1.80;;;12.40;99.90;;;;;;4932604;28;20199;-70
2023/02/19 00:51:55;;;;;;;2.60;2.40;;;12.30;99.90;;;;;;4943622;28;20428;-70
2023/02/19 00:54:21;;;;;;;2.20;2.00;;;12.30;99.90;;;;;;4928514;29;20184;-70
2023/02/19 00:56:47;;;;;;;2.20;1.90;;;12.30;99.90;;;;;;4945608;29;20200;-71
2023/02/19 00:59:13;;;;;;;2.77;2.00;;;12.30;99.90;;;;;;4947645;28;20226;-70
2023/02/19 01:01:39;;;;;;;3.90;2.33;;;12.30;99.90;;;;;;4947661;28;20387;-71
2023/02/19 01:04:05;;;;;;;2.53;2.23;;;12.30;99.90;;;;;;4946945;28;20882;-71
2023/02/19 01:06:31;;;;;;;4.03;1.87;;;12.30;99.90;;;;;;4946675;28;20191;-71
2023/02/19 01:08:57;;;;;;;2.50;2.10;;;12.30;99.90;;;;;;4946046;29;20421;-71
2023/02/19 01:11:23;;;;;;;2.00;1.90;;;12.30;99.90;;;;;;4940980;28;20538;-71
2023/02/19 01:13:48;;;;;;;2.30;2.10;;;12.40;99.90;;;;;;4947178;28;20531;-71
2023/02/19 01:16:19;;;;;;;2.30;2.10;;;12.40;99.90;;;;;;4943802;28;20273;-71
2023/02/19 01:18:46;;;;;;;2.80;2.03;;;12.30;99.90;;;;;;4943197;28;20269;-71
2023/02/19 01:21:15;;;;;;;1.80;1.53;;;12.20;99.90;;;;;;4928292;29;20930;-71
2023/02/19 01:23:41;;;;;;;2.30;1.87;;;12.20;99.90;;;;;;4927825;29;21007;-71
2023/02/19 01:26:10;;;;;;;3.63;2.07;;;12.10;99.90;;;;;;4927724;29;20422;-71
2023/02/19 01:28:35;;;;;;;2.20;2.00;;;12.10;99.90;;;;;;4928023;29;20911;-70
2023/02/19 01:31:07;;;;;;;4.80;2.00;;;12.10;99.90;;;;;;4927628;29;20434;-70
2023/02/19 01:33:33;;;;;;;3.43;2.27;;;12.30;99.90;;;;;;4927220;29;20518;-70
2023/02/19 01:35:59;;;;;;;2.50;2.30;;;12.30;99.90;;;;;;4926792;29;20446;-70
2023/02/19 01:38:25;;;;;;;2.60;2.20;;;12.30;99.90;;;;;;4943688;29;20421;-70
2023/02/19 01:40:58;;;;;;;1.93;1.80;;;12.20;99.90;;;;;;4946536;28;20243;-70
2023/02/19 01:43:25;;;;;;;2.33;1.90;;;12.20;99.90;;;;;;4929112;28;20492;-70
2023/02/19 01:45:50;;;;;;;2.30;1.80;;;12.10;99.90;;;;;;4927498;29;20418;-70
2023/02/19 01:48:26;;;;;;;3.40;1.80;;;12.10;99.90;;;;;;4932055;29;20417;-70
2023/02/19 01:51:13;;;;;;;1.83;1.73;;;12.20;99.90;;;;;;4929627;29;20178;-70
2023/02/19 01:53:44;;;;;;;2.50;1.63;;;12.20;99.90;;;;;;4926877;29;20433;-70
2023/02/19 01:56:14;;;;;;;2.23;2.03;;;12.30;99.90;;;;;;4933422;29;20458;-70
2023/02/19 01:58:40;;;;;;;1.60;1.50;;;12.50;99.90;;;;;;4945289;28;20780;-70
2023/02/19 02:01:07;;;;;;;1.80;1.70;;;12.30;99.90;;;;;;4948838;28;20850;-70
2023/02/19 02:03:36;;;;;;;2.00;1.70;;;12.30;99.90;;;;;;4939040;28;20477;-70
2023/02/19 02:06:22;;;;;;;2.03;1.70;;;12.20;99.90;;;;;;4934817;29;20415;-70
2023/02/19 02:11:37;;;;;;;3.73;1.80;;;12.10;99.90;;;;;;4946240;28;20437;-72
2023/02/19 02:14:03;;;;;;;2.03;1.83;;;12.20;99.90;;;;;;4942259;28;20737;-70
2023/02/19 02:16:36;;;;;;;1.50;1.40;;;12.10;99.90;;;;;;4937887;29;20533;-70
2023/02/19 02:19:23;;;;;;;1.67;1.57;;;12.10;99.90;;;;;;4937298;29;20430;-72
2023/02/19 02:21:54;;;;;;;1.93;1.73;;;12.10;99.90;;;;;;4946623;28;20495;-70
2023/02/19 02:24:40;;;;;;;2.33;1.80;;;12.00;99.90;;;;;;4931306;29;20510;-71
2023/02/19 02:27:36;;;;;;;3.20;2.63;;;12.10;99.90;;;;;;4926920;29;20417;-72
2023/02/19 02:30:22;;;;;;;3.40;2.47;;;12.00;99.90;;;;;;4930807;29;20763;-70
2023/02/19 02:33:03;;;;;;;2.70;2.10;;;12.10;99.90;;;;;;4927196;29;20461;-71
2023/02/19 02:35:33;;;;;;;2.73;2.20;;;12.00;99.90;;;;;;4954763;28;20803;-70
2023/02/19 02:38:04;;;;;;;2.23;2.03;;;11.80;99.90;;;;;;4933901;28;20434;-71
2023/02/19 02:40:30;;;;;;;3.73;2.93;;;11.80;99.90;;;;;;4936083;29;20422;-70
2023/02/19 02:42:57;;;;;;;2.27;2.07;;;11.70;99.90;;;;;;4939874;29;20942;-70
2023/02/19 02:45:34;;;;;;;4.70;2.87;;;11.70;99.90;;;;;;4945453;28;20497;-70
2023/02/19 02:48:45;;;;;;;2.27;2.07;;;11.70;99.90;;;;;;4941429;28;20460;-70
2023/02/19 02:51:36;;;;;;;3.93;2.43;;;11.70;99.90;;;;;;4925325;29;20484;-70
2023/02/19 02:57:13;;;;;;;4.20;2.93;;;11.70;99.90;;;;;;4944877;29;20488;-71
2023/02/19 02:59:40;;;;;;;8.13;5.67;;;11.80;99.90;;;;;;4941892;28;20412;-71
2023/02/19 03:02:19;;;;;;;3.83;3.00;;;11.80;99.90;;;;;;4931740;29;20471;-71
2023/02/19 03:08:04;;;;;;;2.80;1.90;;;11.60;99.90;;;;;;4930298;29;20881;-71
2023/02/19 03:10:37;;;;;;;1.90;1.80;;;11.60;99.90;;;;;;4938360;29;20418;-70
2023/02/19 03:21:29;;;;;;;1.70;1.60;;;11.60;99.90;;;;;;4930520;29;20471;-70
2023/02/19 03:26:43;;;;;;;2.80;1.90;;;11.30;99.90;;;;;;4930098;29;20401;-70
2023/02/19 03:29:24;;;;;;;2.40;2.20;;;11.30;99.90;;;;;;4929893;29;20424;-70
2023/02/19 03:32:05;;;;;;;1.80;1.70;;;11.20;99.90;;;;;;4935053;29;20532;-70
2023/02/19 03:34:36;;;;;;;2.17;1.60;;;11.10;99.90;;;;;;4937084;28;20403;-70
2023/02/19 03:37:09;;;;;;;2.27;2.07;;;11.20;99.90;;;;;;4939842;29;20920;-70
2023/02/19 03:39:43;;;;;;;2.00;1.80;;;11.20;99.90;;;;;;4949052;28;20426;-70
2023/02/19 03:42:19;;;;;;;13.63;4.97;;;11.20;99.90;;;;;;4948893;28;20511;-70
2023/02/19 03:45:14;;;;;;;2.83;1.83;;;11.10;99.90;;;;;;4933973;28;20461;-70
2023/02/19 03:47:53;;;;;;;2.73;1.93;;;11.20;99.90;;;;;;4951853;28;21050;-70
2023/02/19 03:50:34;;;;;;;4.13;2.10;;;11.20;99.90;;;;;;4947132;29;20411;-71
2023/02/19 03:53:25;;;;;;;2.20;1.80;;;11.30;99.90;;;;;;4945877;28;20440;-70
2023/02/19 03:56:07;;;;;;;1.87;1.70;;;11.30;99.90;;;;;;4929343;29;20415;-70
2023/02/19 03:58:43;;;;;;;4.00;2.57;;;11.20;99.90;;;;;;4942870;29;20465;-70
2023/02/19 04:01:24;;;;;;;2.57;1.80;;;11.10;99.90;;;;;;4946630;28;20457;-70
2023/02/19 04:04:01;;;;;;;2.20;1.90;;;11.30;99.90;;;;;;4938211;29;20480;-70
2023/02/19 04:06:30;;;;;;;2.33;1.97;;;11.30;99.90;;;;;;4947727;28;20785;-71
2023/02/19 04:09:00;;;;;;;2.10;1.70;;;11.30;99.90;;;;;;4948186;28;20549;-73
2023/02/19 04:11:27;;;;;;;2.40;2.20;;;11.20;99.90;;;;;;4947671;28;20438;-71
2023/02/19 04:14:15;;;;;;;3.07;1.77;;;11.30;99.90;;;;;;4941822;28;21068;-70
2023/02/19 04:16:45;;;;;;;1.43;1.33;;;11.20;99.90;;;;;;4929256;29;20409;-70
2023/02/19 04:19:15;;;;;;;2.83;2.17;;;11.20;99.90;;;;;;4928734;29;20786;-70
2023/02/19 04:21:42;;;;;;;1.50;1.40;;;11.30;99.90;;;;;;4942968;28;20973;-70
2023/02/19 04:24:17;;;;;;;1.47;1.37;;;11.30;99.90;;;;;;4947771;28;20426;-70
2023/02/19 04:26:44;;;;;;;2.43;1.27;;;11.40;99.90;;;;;;4948130;28;20393;-70
2023/02/19 04:29:09;;;;;;;2.03;1.40;;;11.30;99.90;;;;;;4942603;28;20917;-70
2023/02/19 04:31:37;;;;;;;1.10;1.00;;;11.40;99.90;;;;;;4942999;28;20461;-70
2023/02/19 04:34:03;;;;;;;1.20;1.03;;;11.50;99.90;;;;;;4947764;28;20593;-71
2023/02/19 04:36:31;;;;;;;1.40;1.00;;;11.30;99.90;;;;;;4939068;28;20939;-70
2023/02/19 04:38:56;;;;;;;5.37;1.73;;;11.30;99.90;;;;;;4928555;29;20434;-70
2023/02/19 04:41:22;;;;;;;2.00;1.33;;;11.30;99.90;;;;;;4928325;29;20479;-70
2023/02/19 04:43:48;;;;;;;1.20;1.10;;;11.40;99.90;;;;;;4939673;29;20202;-70
2023/02/19 04:46:13;;;;;;;1.17;1.03;;;11.30;99.90;;;;;;4940881;28;20273;-71
2023/02/19 04:48:39;;;;;;;0.83;0.80;;;11.40;99.90;;;;;;4926317;29;20373;-70
2023/02/19 04:51:05;;;;;;;1.60;1.07;;;11.30;99.90;;;;;;4927190;29;20178;-70
2023/02/19 04:53:31;;;;;;;1.00;0.87;;;11.30;99.90;;;;;;4928449;29;20183;-70
2023/02/19 04:55:57;;;;;;;1.30;1.00;;;11.30;99.90;;;;;;4930768;29;20764;-70
2023/02/19 04:58:22;;;;;;;3.07;1.33;;;11.30;99.90;;;;;;4928111;29;20198;-70
2023/02/19 05:00:51;;;;;;;1.23;1.13;;;11.30;99.90;;;;;;4940134;29;20284;-70
2023/02/19 05:03:17;;;;;;;0.70;0.70;;;11.30;99.90;;;;;;4935731;29;20197;-70
2023/02/19 05:05:42;;;;;;;1.27;0.70;;;11.20;99.90;;;;;;4927012;29;20421;-70
2023/02/19 05:08:08;;;;;;;1.43;0.60;;;11.10;99.90;;;;;;4942153;29;20245;-71
2023/02/19 05:10:33;;;;;;;0.90;0.70;;;11.20;99.90;;;;;;4939654;28;20334;-70
2023/02/19 05:12:59;;;;;;;0.70;0.60;;;11.30;99.90;;;;;;4944648;28;20282;-70
2023/02/19 05:15:24;;;;;;;0.90;0.60;;;11.40;99.90;;;;;;4928146;29;20664;-71
2023/02/19 05:17:50;;;;;;;0.90;0.60;;;11.50;99.90;;;;;;4928066;29;20557;-71
2023/02/19 05:20:16;;;;;;;0.77;0.57;;;11.40;99.90;;;;;;4927668;29;20359;-71
2023/02/19 05:22:41;;;;;;;1.10;0.60;;;11.30;99.90;;;;;;4927068;29;20261;-70
2023/02/19 05:25:07;;;;;;;0.90;0.60;;;11.40;99.90;;;;;;4936626;29;20193;-70
2023/02/19 05:27:32;;;;;;;0.80;0.70;;;11.40;99.90;;;;;;4936728;29;20185;-70
2023/02/19 05:29:58;;;;;;;0.80;0.50;;;11.50;99.90;;;;;;4926417;29;20174;-71
2023/02/19 05:32:23;;;;;;;0.90;0.57;;;11.50;99.90;;;;;;4937690;29;20285;-71
2023/02/19 05:34:50;;;;;;;0.80;0.50;;;11.40;99.90;;;;;;4941080;28;20190;-71
2023/02/19 05:37:16;;;;;;;0.90;0.50;;;11.40;99.90;;;;;;4927820;29;20563;-72
2023/02/19 05:39:41;;;;;;;0.70;0.40;;;11.50;99.90;;;;;;4927819;29;20549;-72
2023/02/19 05:42:07;;;;;;;2.90;0.60;;;11.30;99.90;;;;;;4927334;29;20600;-71
2023/02/19 05:44:32;;;;;;;0.90;0.47;;;11.20;99.90;;;;;;4939016;29;20181;-71
2023/02/19 05:46:58;;;;;;;0.90;0.40;;;11.20;99.90;;;;;;4946389;28;20185;-71
2023/02/19 05:49:23;;;;;;;0.97;0.60;;;11.20;99.90;;;;;;4946124;28;20178;-71
2023/02/19 05:51:52;;;;;;;0.80;0.50;;;11.30;99.90;;;;;;4929191;28;20218;-71
2023/02/19 05:54:17;;;;;;;0.70;0.50;;;11.30;99.90;;;;;;4940061;29;20189;-70
2023/02/19 05:56:43;;;;;;;0.73;0.47;;;11.30;99.90;;;;;;4933433;28;20414;-70
2023/02/19 05:59:18;;;;;;;0.77;0.50;;;11.20;99.90;;;;;;4946360;28;20180;-70
2023/02/19 06:01:44;;;;;;;1.33;0.60;;;11.30;99.90;;;;;;4935359;28;20192;-71
2023/02/19 06:04:10;;;;;;;1.10;0.60;;;11.20;99.90;;;;;;4927062;29;20532;-70
2023/02/19 06:06:36;;;;;;;0.60;0.40;;;11.10;99.90;;;;;;4927104;29;20431;-71
2023/02/19 06:09:04;;;;;;;0.70;0.40;;;11.10;99.90;;;;;;4939421;29;20485;-70
2023/02/19 06:11:29;;;;;;;0.60;0.40;;;11.10;99.90;;;;;;4934904;28;20455;-72
2023/02/19 06:13:55;;;;;;;2.33;0.60;;;11.20;99.90;;;;;;4933478;29;20763;-72
2023/02/19 06:16:21;;;;;;;2.27;1.60;;;11.10;99.90;;;;;;4927374;28;20226;-72
2023/02/19 06:18:47;;;;;;;4.63;3.27;;;11.10;99.90;;;;;;4933952;29;20177;-71
2023/02/19 06:21:14;;;;;;;21.10;13.03;;;11.10;99.90;;;;;;4944890;28;20261;-72
2023/02/19 06:23:40;;;;;;;10.33;5.60;;;11.00;99.90;;;;;;4926679;28;20520;-71
2023/02/19 06:26:19;;;;;;;0.83;0.60;;;10.80;99.90;;;;;;4937957;29;20930;-70
2023/02/19 06:28:46;;;;;;;0.80;0.50;;;10.70;99.90;;;;;;4928760;28;20174;-70
2023/02/19 06:31:12;;;;;;;0.70;0.47;;;10.60;99.90;;;;;;4926443;29;20947;-70
2023/02/19 06:33:39;;;;;;;0.70;0.47;;;10.60;99.90;;;;;;4926430;29;20551;-70
2023/02/19 06:36:07;;;;;;;0.70;0.47;;;10.60;99.90;;;;;;4926654;29;20617;-69
2023/02/19 06:38:32;;;;;;;0.60;0.40;;;10.60;99.90;;;;;;4942280;28;20770;-71
2023/02/19 06:41:03;;;;;;;1.37;0.43;;;10.60;99.90;;;;;;4925961;29;20692;-71
2023/02/19 06:43:30;;;;;;;0.70;0.40;;;10.50;99.90;;;;;;4926378;29;20207;-72
2023/02/19 06:45:58;;;;;;;0.70;0.40;;;10.50;99.90;;;;;;4926666;29;20965;-72
2023/02/19 06:48:25;;;;;;;0.73;0.60;;;10.50;99.90;;;;;;4926366;29;20813;-71
2023/02/19 06:50:51;;;;;;;0.93;0.60;;;10.60;99.90;;;;;;4924341;29;20762;-72
2023/02/19 06:53:16;;;;;;;0.80;0.50;;;10.60;99.90;;;;;;4930621;29;20868;-71
2023/02/19 06:55:42;;;;;;;1.50;0.80;;;10.60;99.90;;;;;;4945292;28;20190;-71
2023/02/19 06:58:08;;;;;;;1.00;0.53;;;10.70;99.90;;;;;;4928421;28;20206;-71
2023/02/19 07:00:34;;;;;;;0.90;0.60;;;10.70;99.90;;;;;;4955889;28;20182;-72
2023/02/19 07:02:59;;;;;;;3.40;1.83;;;10.70;99.90;;;;;;4931207;29;20210;-71
2023/02/19 07:05:25;;;;;;;1.30;1.00;;;10.70;99.90;;;;;;4945957;28;20413;-71
2023/02/19 07:07:50;;;;;;;1.27;0.90;;;10.80;99.90;;;;;;4945361;28;20245;-72
2023/02/19 07:10:16;;;;;;;0.80;0.60;;;10.80;99.90;;;;;;4935081;28;20191;-71
2023/02/19 07:12:42;;;;;;;1.37;1.00;;;10.80;99.90;;;;;;4927528;29;20206;-72
2023/02/19 07:15:08;;;;;;;1.40;0.70;;;10.70;99.90;;;;;;4924925;29;20859;-72
2023/02/19 07:17:34;;;;;;;0.90;0.70;;;10.80;99.90;;;;;;4929953;29;20190;-71
2023/02/19 07:19:59;;;;;;;1.10;0.60;;;10.70;99.90;;;;;;4937576;29;20775;-70
2023/02/19 07:22:25;;;;;;;0.80;0.60;;;10.70;99.90;;;;;;4940309;28;20207;-70
2023/02/19 07:24:51;;;;;;;1.10;0.67;;;10.60;99.90;;;;;;4925923;29;20181;-70
2023/02/19 07:27:16;;;;;;;1.17;0.87;;;10.60;99.90;;;;;;4924809;29;20189;-72
2023/02/19 07:29:42;;;;;;;1.00;0.80;;;10.70;99.90;;;;;;4926652;29;20190;-70
2023/02/19 07:32:07;;;;;;;0.80;0.60;;;10.70;99.90;;;;;;4934255;29;20321;-72
2023/02/19 07:34:33;;;;;;;0.90;0.70;;;10.70;99.90;;;;;;4935735;28;20192;-72
2023/02/19 07:36:58;;;;;;;0.70;0.60;;;10.70;99.90;;;;;;4924961;29;20192;-70
2023/02/19 07:39:24;;;;;;;1.10;1.00;;;10.70;99.90;;;;;;4926164;28;20276;-70
2023/02/19 07:41:49;;;;;;;1.00;0.90;;;10.70;99.90;;;;;;4944652;28;20230;-70
2023/02/19 07:44:15;;;;;;;1.00;0.70;;;10.70;99.90;;;;;;4944750;28;20220;-71
2023/02/19 07:46:42;;;;;;;1.03;0.93;;;10.80;99.90;;;;;;4938218;28;20675;-70
2023/02/19 07:49:07;;;;;;;4.30;1.10;;;10.80;99.90;;;;;;4929534;29;20289;-70
2023/02/19 07:51:33;;;;;;;1.37;0.87;;;10.70;99.90;;;;;;4943097;28;20516;-70
2023/02/19 07:53:58;;;;;;;1.10;1.00;;;10.70;99.90;;;;;;4930774;28;20190;-70
2023/02/19 07:56:24;;;;;;;1.60;1.17;;;10.80;99.90;;;;;;4929495;29;20187;-70
2023/02/19 07:58:49;;;;;;;1.93;1.10;;;10.90;99.90;;;;;;4941023;29;20254;-70
2023/02/19 08:01:18;;;;;;;1.00;0.90;;;10.90;99.90;;;;;;4947132;28;20191;-70
2023/02/19 08:03:44;;;;;;;1.30;1.20;;;10.90;99.90;;;;;;4937880;28;20699;-70
2023/02/19 08:06:11;;;;;;;1.00;0.90;;;11.00;99.90;;;;;;4928928;29;20430;-71
2023/02/19 08:08:38;;;;;;;1.40;1.30;;;11.00;99.90;;;;;;4943697;28;20418;-70
2023/02/19 08:13:56;;;;;;;1.57;1.20;;;11.10;99.90;;;;;;4930321;29;20427;-71
2023/02/19 08:16:22;;;;;;;1.43;1.20;;;11.10;99.90;;;;;;4948023;28;20425;-71
2023/02/19 08:18:48;;;;;;;1.30;0.80;;;11.30;99.90;;;;;;4947923;28;20206;-70
2023/02/19 08:21:16;;;;;;;1.33;1.23;;;11.40;99.90;;;;;;4930986;28;20896;-70
2023/02/19 08:23:42;;;;;;;1.10;1.00;;;11.40;99.90;;;;;;4937677;29;20273;-70
2023/02/19 08:26:08;;;;;;;1.10;0.80;;;11.40;99.90;;;;;;4948175;28;20459;-70
2023/02/19 08:28:34;;;;;;;1.20;0.90;;;11.50;99.90;;;;;;4932949;29;20692;-70
2023/02/19 08:31:05;;;;;;;1.03;0.93;;;11.40;99.90;;;;;;4943165;29;20585;-69
2023/02/19 08:33:31;;;;;;;0.97;0.80;;;11.30;99.90;;;;;;4929077;29;20267;-70
2023/02/19 08:36:03;;;;;;;2.70;1.13;;;11.30;99.90;;;;;;4944523;29;20474;-70
2023/02/19 08:38:29;;;;;;;2.07;1.00;;;11.30;99.90;;;;;;4929351;28;20177;-70
2023/02/19 08:40:55;;;;;;;3.60;0.67;;;11.30;99.90;;;;;;4928536;29;20617;-70
2023/02/19 08:43:20;;;;;;;0.93;0.80;;;11.30;99.90;;;;;;4928402;29;21080;-70
2023/02/19 08:45:46;;;;;;;1.23;0.50;;;11.30;99.90;;;;;;4934824;29;20687;-71
2023/02/19 08:48:12;;;;;;;2.27;0.93;;;11.20;99.90;;;;;;4947539;28;20229;-71
2023/02/19 08:50:38;;;;;;;0.90;0.67;;;11.20;99.90;;;;;;4947647;28;20389;-71
2023/02/19 08:53:05;;;;;;;0.97;0.70;;;11.30;99.90;;;;;;4947223;28;20439;-71
2023/02/19 08:55:31;;;;;;;1.00;0.80;;;11.20;99.90;;;;;;4943805;28;20188;-71
2023/02/19 08:57:57;;;;;;;2.30;0.77;;;11.40;99.90;;;;;;4940484;28;20802;-71
2023/02/19 09:00:23;;;;;;;1.40;0.73;;;11.40;99.90;;;;;;4931115;28;20422;-71
2023/02/19 09:02:48;;;;;;;1.20;0.90;;;11.20;99.90;;;;;;4931973;29;20214;-71
2023/02/19 09:05:14;;;;;;;1.20;0.80;;;11.20;99.90;;;;;;4948008;28;20455;-71
2023/02/19 09:07:40;;;;;;;1.07;0.90;;;11.20;99.90;;;;;;4940706;28;20251;-71
2023/02/19 09:10:07;;;;;;;0.90;0.60;;;11.10;99.90;;;;;;4947226;28;20929;-72
2023/02/19 09:12:32;;;;;;;1.27;1.00;;;11.20;99.90;;;;;;4942352;28;20448;-72
2023/02/19 09:14:59;;;;;;;1.40;0.83;;;11.20;99.90;;;;;;4931287;28;20441;-71
2023/02/19 09:17:25;;;;;;;2.70;1.17;;;11.30;99.90;;;;;;4934173;29;20793;-70
2023/02/19 09:19:51;;;;;;;1.53;1.10;;;11.30;99.90;;;;;;4944515;29;20905;-71
2023/02/19 09:22:17;;;;;;;1.20;1.10;;;11.30;99.90;;;;;;4961421;28;20465;-70
2023/02/19 09:24:43;;;;;;;1.00;0.80;;;11.40;99.90;;;;;;4936573;28;20185;-70
2023/02/19 09:27:14;;;;;;;1.17;0.83;;;11.40;99.90;;;;;;4938034;28;20183;-70
2023/02/19 09:29:40;;;;;;;1.20;1.00;;;11.60;99.90;;;;;;4941933;29;20497;-70
2023/02/19 09:32:05;;;;;;;1.50;1.00;;;11.70;99.90;;;;;;4946114;28;21055;-71
2023/02/19 09:34:31;;;;;;;2.03;1.23;;;11.60;99.90;;;;;;4935865;29;20740;-70
2023/02/19 09:36:56;;;;;;;2.27;1.80;;;11.70;99.90;;;;;;4940633;28;20259;-71
2023/02/19 09:39:22;;;;;;;1.37;0.90;;;11.70;99.90;;;;;;4927280;29;20183;-71
2023/02/19 09:42:08;;;;;;;3.47;1.33;;;11.60;99.90;;;;;;4928762;28;20220;-71
2023/02/19 09:44:37;;;;;;;6.57;1.40;;;11.70;99.90;;;;;;4937049;29;20199;-71
2023/02/19 09:47:08;;;;;;;2.87;1.77;;;11.90;99.90;;;;;;4938688;28;20406;-71
2023/02/19 09:49:48;;;;;;;2.53;1.10;;;11.90;99.90;;;;;;4933069;29;20414;-71
2023/02/19 09:52:33;;;;;;;4.30;2.37;;;12.10;99.90;;;;;;4940978;28;21223;-71
2023/02/19 09:55:14;;;;;;;4.00;1.43;;;12.00;99.90;;;;;;4931760;28;20913;-71
2023/02/19 09:57:40;;;;;;;2.27;1.60;;;12.00;99.90;;;;;;4940358;29;20403;-71
2023/02/19 10:00:33;;;;;;;2.07;1.40;;;12.00;99.90;;;;;;4943695;28;20566;-72
2023/02/19 10:03:04;;;;;;;2.60;1.50;;;12.00;99.90;;;;;;4942609;28;20479;-71
2023/02/19 10:05:31;;;;;;;4.33;1.70;;;11.90;99.90;;;;;;4944699;29;20445;-72
2023/02/19 10:07:57;;;;;;;2.00;0.97;;;12.00;99.90;;;;;;4937996;28;21260;-71
2023/02/19 10:10:33;;;;;;;1.67;1.03;;;12.20;99.90;;;;;;4937179;28;20420;-72
2023/02/19 10:13:21;;;;;;;2.20;1.37;;;12.20;99.90;;;;;;4937368;29;20446;-71
2023/02/19 10:15:48;;;;;;;5.60;1.63;;;12.40;99.90;;;;;;4943127;29;20506;-71
2023/02/19 10:18:20;;;;;;;4.03;1.30;;;12.30;99.90;;;;;;4945771;28;20426;-71
2023/02/19 10:20:47;;;;;;;2.07;1.60;;;12.50;99.90;;;;;;4945594;28;20492;-71
2023/02/19 10:23:14;;;;;;;2.00;1.20;;;12.40;99.90;;;;;;4939263;28;20465;-72
2023/02/19 10:25:59;;;;;;;2.28;1.50;;;12.60;99.90;;;;;;4923861;29;20492;-73
2023/02/19 10:28:33;;;;;;;3.53;1.40;;;12.90;99.90;;;;;;4940770;29;20171;-73
2023/02/19 10:31:01;;;;;;;4.00;1.90;;;12.70;99.90;;;;;;4929690;29;20470;-72
2023/02/19 10:33:28;;;;;;;2.20;1.47;;;12.50;99.90;;;;;;4928120;29;20779;-73
2023/02/19 10:36:16;;;;;;;2.90;1.37;;;12.50;99.90;;;;;;4931199;29;20419;-72
2023/02/19 10:38:46;;;;;;;1.50;1.17;;;12.70;99.90;;;;;;4935544;29;20421;-73
2023/02/19 10:41:21;;;;;;;4.20;1.30;;;12.60;99.90;;;;;;4936134;28;20424;-74
2023/02/19 10:44:13;;;;;;;4.23;1.30;;;12.40;99.90;;;;;;4945717;28;20862;-72
2023/02/19 10:46:50;;;;;;;1.80;1.10;;;12.40;99.90;;;;;;4934534;29;20423;-73
2023/02/19 10:49:27;;;;;;;2.07;1.17;;;12.40;99.90;;;;;;4932317;28;20416;-72
2023/02/19 10:51:55;;;;;;;1.87;1.10;;;12.50;99.90;;;;;;4926146;29;21031;-73
2023/02/19 10:54:34;;;;;;;6.37;1.67;;;12.60;99.90;;;;;;4939198;28;20834;-72
2023/02/19 10:57:18;;;;;;;2.00;1.50;;;12.70;99.90;;;;;;4930825;28;20769;-74
2023/02/19 11:00:02;;;;;;;3.37;1.40;;;13.00;99.90;;;;;;4926705;29;20418;-73
2023/02/19 11:02:29;;;;;;;2.70;1.27;;;12.90;99.90;;;;;;4936672;29;20559;-74
2023/02/19 11:05:03;;;;;;;4.20;1.20;;;12.90;99.90;;;;;;4925771;29;20848;-73
2023/02/19 11:07:29;;;;;;;3.03;1.23;;;12.90;99.90;;;;;;4953076;28;20429;-72
2023/02/19 11:09:55;;;;;;;3.00;1.43;;;12.80;99.90;;;;;;4933894;29;20427;-71
2023/02/19 11:12:32;;;;;;;2.27;1.40;;;12.90;99.90;;;;;;4933963;28;20587;-72
2023/02/19 11:15:18;;;;;;;3.77;1.43;;;12.80;99.90;;;;;;4933585;29;20415;-76
2023/02/19 11:17:44;;;;;;;3.17;1.27;;;12.80;99.90;;;;;;4939901;29;20424;-76
2023/02/19 11:20:16;;;;;;;3.20;1.40;;;12.80;99.90;;;;;;4930705;29;20820;-72
2023/02/19 11:22:45;;;;;;;3.47;1.50;;;12.70;99.90;;;;;;4943299;29;20210;-72
2023/02/19 11:25:14;;;;;;;1.90;1.00;;;12.80;99.90;;;;;;4942645;28;20409;-74
2023/02/19 11:28:06;;;;;;;2.00;1.17;;;13.00;99.90;;;;;;4957420;28;20457;-75
2023/02/19 11:30:46;;;;;;;6.90;2.03;;;13.10;99.90;;;;;;4930163;29;20412;-73
2023/02/19 11:33:15;;;;;;;2.37;1.40;;;12.90;99.90;;;;;;4935942;29;20531;-73
2023/02/19 11:35:41;;;;;;;8.73;4.90;;;13.10;99.90;;;;;;4935204;29;20416;-72
2023/02/19 11:38:09;;;;;;;2.03;1.33;;;13.00;99.90;;;;;;4949068;28;20423;-73
2023/02/19 11:40:40;;;;;;;2.33;1.00;;;12.90;99.90;;;;;;4938904;28;20425;-73
2023/02/19 11:43:26;;;;;;;3.20;1.40;;;12.80;99.90;;;;;;4928216;29;20476;-71
2023/02/19 11:46:08;;;;;;;2.50;1.60;;;12.80;99.90;;;;;;4937061;29;20838;-74
2023/02/19 11:48:52;;;;;;;2.53;1.10;;;12.60;99.90;;;;;;4948716;28;20789;-73
2023/02/19 11:51:42;;;;;;;3.50;2.07;;;12.30;99.90;;;;;;4933755;28;20496;-73
2023/02/19 11:54:40;;;;;;;2.20;1.43;;;12.20;99.90;;;;;;4947359;29;20918;-75
2023/02/19 11:57:32;;;;;;;2.30;1.57;;;12.40;99.90;;;;;;4946987;28;20504;-74
2023/02/19 12:00:16;;;;;;;3.30;1.43;;;12.80;99.90;;;;;;4946545;28;20432;-74
2023/02/19 12:03:05;;;;;;;1.80;1.20;;;12.90;99.90;;;;;;4929438;29;20475;-74
2023/02/19 12:05:55;;;;;;;3.23;1.70;;;13.00;99.90;;;;;;4929118;29;20409;-73
2023/02/19 12:08:58;;;;;;;3.23;1.37;;;13.10;99.90;;;;;;4945639;29;20413;-71
2023/02/19 12:11:52;;;;;;;4.63;1.40;;;12.90;99.90;;;;;;4948128;28;20432;-71
2023/02/19 12:14:36;;;;;;;4.20;1.60;;;12.90;99.90;;;;;;4934212;29;20412;-70
2023/02/19 12:17:02;;;;;;;2.00;1.27;;;12.70;99.90;;;;;;4947812;28;20462;-70
2023/02/19 12:20:13;;;;;;;2.80;1.30;;;12.70;99.90;;;;;;4962477;28;21041;-70
2023/02/19 12:23:05;;;;;;;4.03;1.50;;;12.80;99.90;;;;;;4949246;28;20239;-71
2023/02/19 12:25:44;;;;;;;4.37;2.80;;;13.10;99.90;;;;;;4948323;29;20513;-70
2023/02/19 12:28:24;;;;;;;3.40;1.87;;;13.30;99.90;;;;;;4947975;28;20406;-70
2023/02/19 12:31:35;;;;;;;2.77;1.27;;;13.60;99.90;;;;;;4931565;28;20509;-70
2023/02/19 12:34:06;;;;;;;4.40;2.30;;;13.40;99.90;;;;;;4929466;29;20442;-71
2023/02/19 12:36:32;;;;;;;4.90;1.50;;;13.70;99.90;;;;;;4933062;29;20781;-72
2023/02/19 12:39:04;;;;;;;2.30;1.20;;;13.90;99.90;;;;;;4930046;29;20512;-71
2023/02/19 12:41:48;;;;;;;3.90;1.27;;;13.80;99.90;;;;;;4937794;29;20215;-70
2023/02/19 12:44:23;;;;;;;3.13;1.30;;;13.80;99.90;;;;;;4942227;29;20465;-70
2023/02/19 12:46:55;;;;;;;2.70;1.17;;;13.70;99.90;;;;;;4939690;28;20503;-71
2023/02/19 12:49:29;;;;;;;1.90;1.20;;;13.80;99.90;;;;;;4928442;29;20474;-70
2023/02/19 12:52:00;;;;;;;1.53;1.00;;;13.70;99.90;;;;;;4934939;29;21032;-72
2023/02/19 12:54:31;;;;;;;2.63;1.40;;;13.90;99.90;;;;;;4936964;29;20404;-70
2023/02/19 12:57:24;;;;;;;2.50;1.20;;;14.00;99.90;;;;;;4944419;28;20447;-68
2023/02/19 13:00:06;;;;;;;1.97;1.10;;;13.90;99.90;;;;;;4928127;29;20498;-69
2023/02/19 13:02:37;;;;;;;2.67;1.40;;;13.80;99.90;;;;;;4932120;29;20451;-69
2023/02/19 13:05:21;;;;;;;4.53;1.40;;;13.60;99.90;;;;;;4953162;28;20784;-68
2023/02/19 13:08:14;;;;;;;2.57;1.27;;;13.70;99.90;;;;;;4926843;29;20423;-68
2023/02/19 13:10:47;;;;;;;3.00;1.20;;;13.50;99.90;;;;;;4942405;29;20505;-69
2023/02/19 13:13:44;;;;;;;2.60;1.20;;;13.70;99.90;;;;;;4943070;28;20503;-69
2023/02/19 13:16:17;;;;;;;3.73;1.40;;;13.40;99.90;;;;;;4946757;28;20472;-70
2023/02/19 13:18:49;;;;;;;2.83;1.27;;;13.10;99.90;;;;;;4946947;28;20416;-70
2023/02/19 13:24:09;;;;;;;2.03;1.20;;;13.10;99.90;;;;;;4933033;29;20457;-70
2023/02/19 13:26:50;;;;;;;3.03;1.87;;;12.80;99.90;;;;;;4930582;29;20510;-70
2023/02/19 13:29:43;;;;;;;3.00;1.50;;;12.90;99.90;;;;;;4943058;28;20414;-70
2023/02/19 13:32:37;;;;;;;4.30;1.23;;;12.90;99.90;;;;;;4927874;29;20437;-71